createdAt,value
2022-10-23T00:00:33.360Z,99604.02
2022-10-23T00:04:09.495Z,99609.44
2022-10-23T00:07:11.978Z,99615.38
2022-10-23T00:10:13.919Z,99619.12
2022-10-23T00:13:15.649Z,99619.42
2022-10-23T00:16:17.447Z,99620.27
2022-10-23T00:19:19.460Z,99620.33
2022-10-23T00:22:21.193Z,99630.45
2022-10-23T00:25:23.136Z,99638.02
2022-10-23T00:28:25.271Z,99641.35
2022-10-23T00:31:26.983Z,99650.27
2022-10-23T00:34:28.758Z,99648.52
2022-10-23T00:37:30.644Z,99653.23
2022-10-23T00:40:32.401Z,99654.36
2022-10-23T00:43:35.228Z,99653.48
2022-10-23T00:46:38.477Z,99652.21
2022-10-23T00:49:42.835Z,99656.45
2022-10-23T00:52:51.130Z,99658.02
2022-10-23T00:55:54.261Z,99660.19
2022-10-23T00:58:56.046Z,99660.58
2022-10-23T01:01:58.959Z,99659.17
2022-10-23T01:05:00.974Z,99666.71
2022-10-23T01:08:08.064Z,99666.64
2022-10-23T01:11:12.775Z,99668.88
2022-10-23T01:14:23.497Z,99671.70
2022-10-23T01:17:34.479Z,99673.21
2022-10-23T01:20:45.675Z,99671.56
2022-10-23T01:24:02.932Z,99674.85
2022-10-23T01:27:21.024Z,99679.46
2022-10-23T01:30:22.760Z,99685.56
2022-10-23T01:33:27.986Z,99685.88
2022-10-23T01:36:30.448Z,99684.28
2022-10-23T01:39:39.061Z,99680.27
2022-10-23T01:42:46.683Z,99682.09
2022-10-23T01:45:51.792Z,99677.63
2022-10-23T01:48:55.595Z,99679.89
2022-10-23T01:52:00.620Z,99682.05
2022-10-23T01:55:02.479Z,99674.27
2022-10-23T01:58:05.082Z,99666.40
2022-10-23T02:01:08.411Z,99678.94
2022-10-23T02:04:13.059Z,99686.29
2022-10-23T02:07:14.875Z,99687.21
2022-10-23T02:10:17.933Z,99687.20
2022-10-23T02:13:26.538Z,99693.89
2022-10-23T02:16:42.482Z,99701.45
2022-10-23T02:19:50.147Z,99703.77
2022-10-23T02:23:00.751Z,99709.02
2022-10-23T02:26:15.179Z,99713.52
2022-10-23T02:29:23.505Z,99722.38
2022-10-23T02:32:27.631Z,99726.63
2022-10-23T02:35:29.437Z,99726.01
2022-10-23T02:38:37.419Z,99726.20
2022-10-23T02:41:42.216Z,99721.56
2022-10-23T02:44:43.865Z,99720.73
2022-10-23T02:47:53.058Z,99719.45
2022-10-23T02:51:04.396Z,99719.57
2022-10-23T02:54:12.215Z,99717.33
2022-10-23T02:57:31.544Z,99713.15
2022-10-23T03:00:34.248Z,99713.25
2022-10-23T03:03:40.249Z,99710.64
2022-10-23T03:06:42.051Z,99717.36
2022-10-23T03:09:43.899Z,99719.23
2022-10-23T03:12:47.168Z,99722.59
2022-10-23T03:15:48.981Z,99727.03
2022-10-23T03:18:50.779Z,99730.61
2022-10-23T03:21:52.451Z,99731.36
2022-10-23T03:24:54.184Z,99735.19
2022-10-23T03:27:56.122Z,99740.59
2022-10-23T03:30:57.950Z,99736.36
2022-10-23T03:33:59.830Z,99739.41
2022-10-23T03:37:01.601Z,99739.73
2022-10-23T03:40:04.622Z,99739.96
2022-10-23T03:43:06.498Z,99739.87
2022-10-23T03:46:12.540Z,99741.78
2022-10-23T03:49:14.451Z,99741.11
2022-10-23T03:52:16.190Z,99739.86
2022-10-23T03:55:18.093Z,99736.58
2022-10-23T03:58:19.954Z,99738.59
2022-10-23T04:01:21.869Z,99739.33
2022-10-23T04:04:26.907Z,99743.42
2022-10-23T04:07:28.671Z,99745.63
2022-10-23T04:10:30.593Z,99753.88
2022-10-23T04:13:32.349Z,99760.45
2022-10-23T04:16:34.127Z,99759.04
2022-10-23T04:19:35.831Z,99756.27
2022-10-23T04:22:37.630Z,99757.44
2022-10-23T04:25:39.360Z,99755.60
2022-10-23T04:28:41.244Z,99754.53
2022-10-23T04:31:43.094Z,99748.67
2022-10-23T04:34:45.090Z,99747.15
2022-10-23T04:37:47.225Z,99748.20
2022-10-23T04:40:49.082Z,99747.46
2022-10-23T04:43:50.924Z,99744.37
2022-10-23T04:46:52.675Z,99743.80
2022-10-23T04:49:54.327Z,99743.20
2022-10-23T04:52:57.034Z,99747.78
2022-10-23T04:55:59.594Z,99748.02
2022-10-23T04:59:02.509Z,99749.42
2022-10-23T05:02:04.393Z,99747.52
2022-10-23T05:05:08.424Z,99749.46
2022-10-23T05:08:13.201Z,99748.00
2022-10-23T05:11:17.705Z,99749.98
2022-10-23T05:14:22.685Z,99751.61
2022-10-23T05:17:35.844Z,99747.64
2022-10-23T05:20:38.031Z,99743.14
2022-10-23T05:23:41.535Z,99746.19
2022-10-23T05:26:43.452Z,99750.02
2022-10-23T05:29:45.261Z,99753.89
2022-10-23T05:32:47.200Z,99753.05
2022-10-23T05:35:48.911Z,99758.71
2022-10-23T05:38:51.195Z,99766.20
2022-10-23T05:41:53.065Z,99761.53
2022-10-23T05:44:54.835Z,99761.84
2022-10-23T05:48:05.755Z,99758.91
2022-10-23T05:51:23.488Z,99757.46
2022-10-23T05:54:25.240Z,99760.38
2022-10-23T05:57:26.978Z,99763.48
2022-10-23T06:00:29.231Z,99761.70
2022-10-23T06:03:30.938Z,99759.26
2022-10-23T06:06:32.821Z,99757.96
2022-10-23T06:09:34.527Z,99761.19
2022-10-23T06:12:36.435Z,99767.91
2022-10-23T06:15:38.467Z,99770.92
2022-10-23T06:18:40.543Z,99774.48
2022-10-23T06:21:42.572Z,99776.69
2022-10-23T06:24:44.338Z,99776.80
2022-10-23T06:27:46.133Z,99781.75
2022-10-23T06:30:48.085Z,99785.23
2022-10-23T06:33:49.781Z,99781.14
2022-10-23T06:36:51.490Z,99776.94
2022-10-23T06:39:53.479Z,99779.04
2022-10-23T06:42:56.333Z,99785.75
2022-10-23T06:46:01.876Z,99786.71
2022-10-23T06:49:04.075Z,99790.39
2022-10-23T06:52:11.045Z,99798.10
2022-10-23T06:55:20.535Z,99803.16
2022-10-23T06:58:22.307Z,99807.20
2022-10-23T07:01:24.131Z,99802.15
2022-10-23T07:04:26.198Z,99804.87
2022-10-23T07:07:30.540Z,99805.98
2022-10-23T07:10:32.387Z,99806.80
2022-10-23T07:13:36.183Z,99810.95
2022-10-23T07:16:37.937Z,99817.52
2022-10-23T07:19:39.745Z,99817.39
2022-10-23T07:22:41.779Z,99813.13
2022-10-23T07:25:43.863Z,99813.36
2022-10-23T07:28:47.279Z,99817.55
2022-10-23T07:31:49.070Z,99818.02
2022-10-23T07:34:50.945Z,99818.13
2022-10-23T07:37:52.613Z,99822.80
2022-10-23T07:40:57.856Z,99822.37
2022-10-23T07:43:59.644Z,99824.17
2022-10-23T07:47:01.431Z,99825.11
2022-10-23T07:50:03.407Z,99824.91
2022-10-23T07:53:05.326Z,99830.30
2022-10-23T07:56:21.171Z,99831.10
2022-10-23T07:59:22.932Z,99834.31
2022-10-23T08:02:24.641Z,99836.37
2022-10-23T08:05:26.472Z,99836.96
2022-10-23T08:08:28.352Z,99831.73
2022-10-23T08:11:35.360Z,99836.83
2022-10-23T08:14:37.198Z,99841.88
2022-10-23T08:17:39.399Z,99843.64
2022-10-23T08:20:42.437Z,99848.19
2022-10-23T08:23:44.851Z,99848.09
2022-10-23T08:26:46.605Z,99840.04
2022-10-23T08:29:48.386Z,99834.86
2022-10-23T08:32:50.118Z,99834.99
2022-10-23T08:35:52.001Z,99834.17
2022-10-23T08:38:55.466Z,99830.70
2022-10-23T08:41:57.381Z,99834.14
2022-10-23T08:45:08.035Z,99828.13
2022-10-23T08:48:31.104Z,99821.48
2022-10-23T08:51:43.962Z,99818.53
2022-10-23T08:55:03.309Z,99821.33
2022-10-23T08:58:16.260Z,99819.19
2022-10-23T09:01:42.920Z,99819.91
2022-10-23T09:04:47.013Z,99821.55
2022-10-23T09:07:51.441Z,99823.91
2022-10-23T09:11:12.981Z,99821.25
2022-10-23T09:14:36.467Z,99825.69
2022-10-23T09:17:41.376Z,99820.08
2022-10-23T09:20:46.170Z,99820.95
2022-10-23T09:23:47.941Z,99822.63
2022-10-23T09:26:52.366Z,99826.17
2022-10-23T09:29:56.066Z,99826.00
2022-10-23T09:32:58.899Z,99828.25
2022-10-23T09:36:03.734Z,99825.16
2022-10-23T09:39:05.501Z,99827.45
2022-10-23T09:42:36.528Z,99825.46
2022-10-23T09:45:41.879Z,99827.98
2022-10-23T09:48:43.683Z,99830.12
2022-10-23T09:52:08.741Z,99834.56
2022-10-23T09:55:36.950Z,99832.36
2022-10-23T09:58:54.136Z,99822.83
2022-10-23T10:01:58.822Z,99812.85
2022-10-23T10:05:20.156Z,99805.59
2022-10-23T10:08:32.808Z,99795.73
2022-10-23T10:11:54.601Z,99789.61
2022-10-23T10:15:02.516Z,99783.48
2022-10-23T10:18:18.241Z,99780.60
2022-10-23T10:21:32.530Z,99778.30
2022-10-23T10:24:56.139Z,99783.92
2022-10-23T10:28:12.975Z,99787.00
2022-10-23T10:31:26.935Z,99780.65
2022-10-23T10:34:43.767Z,99781.91
2022-10-23T10:38:03.254Z,99778.37
2022-10-23T10:41:40.816Z,99781.77
2022-10-23T10:45:11.579Z,99773.27
2022-10-23T10:48:35.986Z,99773.02
2022-10-23T10:51:47.080Z,99775.90
2022-10-23T10:55:04.074Z,99770.61
2022-10-23T10:58:42.783Z,99767.42
2022-10-23T11:02:00.978Z,99762.42
2022-10-23T11:05:11.155Z,99758.25
2022-10-23T11:08:13.794Z,99751.60
2022-10-23T11:11:27.186Z,99744.92
2022-10-23T11:14:33.379Z,99749.08
2022-10-23T11:17:40.160Z,99746.29
2022-10-23T11:20:55.997Z,99745.48
2022-10-23T11:24:14.813Z,99735.19
2022-10-23T11:27:23.303Z,99730.88
2022-10-23T11:30:40.353Z,99729.46
2022-10-23T11:34:01.153Z,99726.51
2022-10-23T11:37:05.015Z,99720.75
2022-10-23T11:40:06.747Z,99719.70
2022-10-23T11:43:09.346Z,99715.52
2022-10-23T11:46:31.775Z,99717.66
2022-10-23T11:49:33.588Z,99718.90
2022-10-23T11:53:23.032Z,99716.02
2022-10-23T11:56:17.020Z,99709.45
2022-10-23T11:59:30.721Z,99706.55
2022-10-23T12:02:39.787Z,99702.58
2022-10-23T12:05:42.427Z,99695.39
2022-10-23T12:08:44.456Z,99693.56
2022-10-23T12:12:02.282Z,99693.00
2022-10-23T12:15:16.109Z,99689.64
2022-10-23T12:18:18.127Z,99688.80
2022-10-23T12:21:22.899Z,99679.81
2022-10-23T12:24:52.083Z,99677.09
2022-10-23T12:28:02.635Z,99674.98
2022-10-23T12:31:07.547Z,99672.15
2022-10-23T12:34:33.464Z,99666.71
2022-10-23T12:38:00.197Z,99661.59
2022-10-23T12:41:21.292Z,99658.68
2022-10-23T12:44:25.485Z,99649.44
2022-10-23T12:47:27.562Z,99639.10
2022-10-23T12:50:31.375Z,99638.20
2022-10-23T12:53:33.239Z,99639.25
2022-10-23T12:56:36.489Z,99631.63
2022-10-23T12:59:39.280Z,99634.63
2022-10-23T13:02:41.330Z,99633.43
2022-10-23T13:05:43.550Z,99631.55
2022-10-23T13:08:47.778Z,99632.52
2022-10-23T13:11:51.184Z,99634.20
2022-10-23T13:15:08.491Z,99633.27
2022-10-23T13:18:14.256Z,99632.56
2022-10-23T13:21:22.564Z,99629.99
2022-10-23T13:24:27.223Z,99627.91
2022-10-23T13:27:34.000Z,99618.91
2022-10-23T13:30:39.150Z,99623.56
2022-10-23T13:33:43.290Z,99618.23
2022-10-23T13:36:58.124Z,99611.60
2022-10-23T13:40:05.065Z,99612.21
2022-10-23T13:43:14.749Z,99607.16
2022-10-23T13:46:18.523Z,99613.14
2022-10-23T13:49:20.838Z,99607.33
2022-10-23T13:52:23.898Z,99605.94
2022-10-23T13:55:26.299Z,99606.90
2022-10-23T13:58:28.044Z,99611.98
2022-10-23T14:01:33.820Z,99616.67
2022-10-23T14:04:35.570Z,99615.84
2022-10-23T14:07:37.419Z,99614.98
2022-10-23T14:10:39.075Z,99614.59
2022-10-23T14:13:41.299Z,99615.29
2022-10-23T14:16:43.137Z,99616.14
2022-10-23T14:19:45.801Z,99615.02
2022-10-23T14:22:47.885Z,99610.52
2022-10-23T14:25:49.846Z,99603.81
2022-10-23T14:28:56.413Z,99609.69
2022-10-23T14:31:59.453Z,99604.32
2022-10-23T14:35:04.154Z,99598.95
2022-10-23T14:38:06.044Z,99597.45
2022-10-23T14:41:16.275Z,99597.16
2022-10-23T14:44:18.002Z,99602.83
2022-10-23T14:47:19.955Z,99601.02
2022-10-23T14:50:21.958Z,99598.64
2022-10-23T14:53:23.671Z,99600.48
2022-10-23T14:56:25.717Z,99601.49
2022-10-23T14:59:27.637Z,99602.23
2022-10-23T15:02:29.407Z,99602.38
2022-10-23T15:05:31.108Z,99601.46
2022-10-23T15:08:33.183Z,99599.77
2022-10-23T15:11:34.904Z,99601.61
2022-10-23T15:14:36.705Z,99604.00
2022-10-23T15:17:39.323Z,99605.60
2022-10-23T15:20:41.060Z,99608.27
2022-10-23T15:23:44.365Z,99608.41
2022-10-23T15:26:46.647Z,99615.27
2022-10-23T15:29:48.480Z,99616.54
2022-10-23T15:32:50.217Z,99612.70
2022-10-23T15:35:52.561Z,99617.10
2022-10-23T15:38:54.288Z,99620.52
2022-10-23T15:41:57.090Z,99620.70
2022-10-23T15:44:58.851Z,99622.05
2022-10-23T15:48:00.659Z,99617.84
2022-10-23T15:51:02.447Z,99618.15
2022-10-23T15:54:06.351Z,99620.66
2022-10-23T15:57:08.095Z,99622.92
2022-10-23T16:00:14.793Z,99620.50
2022-10-23T16:03:17.801Z,99618.13
2022-10-23T16:06:20.608Z,99618.95
2022-10-23T16:09:22.527Z,99615.77
2022-10-23T16:12:24.851Z,99624.81
2022-10-23T16:15:26.744Z,99626.55
2022-10-23T16:18:28.953Z,99627.80
2022-10-23T16:21:33.289Z,99630.27
2022-10-23T16:24:35.459Z,99629.52
2022-10-23T16:27:37.249Z,99630.80
2022-10-23T16:30:43.207Z,99632.55
2022-10-23T16:33:45.052Z,99635.13
2022-10-23T16:36:47.255Z,99641.77
2022-10-23T16:39:48.910Z,99643.58
2022-10-23T16:42:50.756Z,99639.55
2022-10-23T16:46:10.735Z,99646.47
2022-10-23T16:49:14.157Z,99648.91
2022-10-23T16:52:15.841Z,99652.77
2022-10-23T16:55:17.747Z,99663.88
2022-10-23T16:58:19.419Z,99670.43
2022-10-23T17:01:23.580Z,99673.15
2022-10-23T17:04:25.446Z,99674.92
2022-10-23T17:07:27.266Z,99673.55
2022-10-23T17:10:29.059Z,99673.73
2022-10-23T17:13:30.794Z,99681.02
2022-10-23T17:16:37.454Z,99678.89
2022-10-23T17:19:46.008Z,99681.80
2022-10-23T17:22:48.598Z,99682.06
2022-10-23T17:25:50.351Z,99682.36
2022-10-23T17:28:52.634Z,99685.01
2022-10-23T17:31:54.698Z,99682.83
2022-10-23T17:34:56.394Z,99678.96
2022-10-23T17:37:58.420Z,99676.31
2022-10-23T17:41:00.184Z,99683.21
2022-10-23T17:44:02.034Z,99682.40
2022-10-23T17:47:03.784Z,99678.25
2022-10-23T17:50:09.565Z,99673.18
2022-10-23T17:53:11.354Z,99673.81
2022-10-23T17:56:19.284Z,99668.45
2022-10-23T17:59:21.066Z,99665.55
2022-10-23T18:02:23.083Z,99667.00
2022-10-23T18:05:24.912Z,99667.50
2022-10-23T18:08:26.938Z,99668.35
2022-10-23T18:11:33.723Z,99662.46
2022-10-23T18:14:37.532Z,99663.41
2022-10-23T18:17:39.620Z,99672.20
2022-10-23T18:20:42.047Z,99673.31
2022-10-23T18:23:44.635Z,99664.68
2022-10-23T18:26:48.269Z,99659.59
2022-10-23T18:29:51.096Z,99660.76
2022-10-23T18:32:52.888Z,99655.06
2022-10-23T18:35:54.592Z,99651.06
2022-10-23T18:38:56.521Z,99643.02
2022-10-23T18:41:58.889Z,99640.24
2022-10-23T18:45:01.063Z,99644.77
2022-10-23T18:48:03.489Z,99652.55
2022-10-23T18:51:05.738Z,99652.25
2022-10-23T18:54:10.692Z,99651.98
2022-10-23T18:57:12.480Z,99653.88
2022-10-23T19:00:14.591Z,99652.33
2022-10-23T19:03:16.621Z,99648.65
2022-10-23T19:06:19.108Z,99648.01
2022-10-23T19:09:20.808Z,99644.23
2022-10-23T19:12:23.281Z,99642.27
2022-10-23T19:15:25.175Z,99636.83
2022-10-23T19:18:26.940Z,99636.14
2022-10-23T19:21:31.890Z,99627.61
2022-10-23T19:24:39.458Z,99627.40
2022-10-23T19:27:42.382Z,99628.40
2022-10-23T19:30:44.087Z,99621.18
2022-10-23T19:33:45.854Z,99621.55
2022-10-23T19:36:48.563Z,99628.83
2022-10-23T19:39:50.313Z,99630.82
2022-10-23T19:42:54.288Z,99631.94
2022-10-23T19:45:56.134Z,99620.83
2022-10-23T19:48:57.893Z,99614.21
2022-10-23T19:51:59.623Z,99612.29
2022-10-23T19:55:03.403Z,99616.27
2022-10-23T19:58:05.503Z,99614.70
2022-10-23T20:01:12.515Z,99621.83
2022-10-23T20:04:14.927Z,99625.24
2022-10-23T20:07:17.073Z,99621.86
2022-10-23T20:10:19.038Z,99618.14
2022-10-23T20:13:21.343Z,99618.54
2022-10-23T20:16:29.125Z,99618.10
2022-10-23T20:19:30.832Z,99624.45
2022-10-23T20:22:32.550Z,99620.23
2022-10-23T20:25:34.236Z,99620.11
2022-10-23T20:28:36.084Z,99619.08
2022-10-23T20:31:39.531Z,99616.33
2022-10-23T20:34:42.050Z,99611.13
2022-10-23T20:37:43.864Z,99612.48
2022-10-23T20:40:46.184Z,99608.30
2022-10-23T20:43:48.565Z,99611.55
2022-10-23T20:46:50.525Z,99609.56
2022-10-23T20:49:52.419Z,99603.52
2022-10-23T20:52:54.164Z,99605.77
2022-10-23T20:55:56.011Z,99604.89
2022-10-23T20:58:59.370Z,99599.06
2022-10-23T21:02:01.199Z,99595.89
2022-10-23T21:05:03.044Z,99598.30
2022-10-23T21:08:05.020Z,99599.93
2022-10-23T21:11:08.542Z,99594.46
2022-10-23T21:14:10.278Z,99595.04
2022-10-23T21:17:16.908Z,99593.53
2022-10-23T21:20:18.622Z,99594.41
2022-10-23T21:23:21.734Z,99595.52
2022-10-23T21:26:24.246Z,99596.23
2022-10-23T21:29:25.959Z,99596.34
2022-10-23T21:32:27.694Z,99599.96
2022-10-23T21:35:30.191Z,99602.33
2022-10-23T21:38:32.162Z,99602.38
2022-10-23T21:41:34.654Z,99597.56
2022-10-23T21:44:36.520Z,99589.20
2022-10-23T21:47:38.555Z,99581.35
2022-10-23T21:50:40.389Z,99574.06
2022-10-23T21:53:42.126Z,99578.07
2022-10-23T21:56:45.599Z,99573.86
2022-10-23T21:59:48.155Z,99574.29
2022-10-23T22:02:50.029Z,99575.50
2022-10-23T22:05:52.205Z,99575.94
2022-10-23T22:08:55.727Z,99575.29
2022-10-23T22:12:00.044Z,99576.16
2022-10-23T22:15:02.099Z,99577.74
2022-10-23T22:18:03.899Z,99577.36
2022-10-23T22:21:09.332Z,99578.85
2022-10-23T22:24:12.005Z,99576.21
2022-10-23T22:27:13.723Z,99565.98
2022-10-23T22:30:15.821Z,99564.73
2022-10-23T22:33:17.484Z,99564.45
2022-10-23T22:36:19.161Z,99569.25
2022-10-23T22:39:21.269Z,99569.20
2022-10-23T22:42:23.081Z,99575.92
2022-10-23T22:45:24.843Z,99572.35
2022-10-23T22:48:27.774Z,99560.68
2022-10-23T22:51:30.066Z,99562.28
2022-10-23T22:54:32.312Z,99548.66
2022-10-23T22:57:34.249Z,99535.13
2022-10-23T23:00:42.742Z,99535.08
2022-10-23T23:03:46.387Z,99535.88
2022-10-23T23:07:10.048Z,99541.45
2022-10-23T23:10:26.435Z,99530.17
2022-10-23T23:13:29.223Z,99525.38
2022-10-23T23:16:32.249Z,99526.14
2022-10-23T23:19:34.625Z,99521.42
2022-10-23T23:22:36.629Z,99516.38
2022-10-23T23:25:50.199Z,99514.15
2022-10-23T23:28:53.902Z,99514.91
2022-10-23T23:31:55.894Z,99518.84
2022-10-23T23:34:59.520Z,99525.52
2022-10-23T23:38:01.468Z,99527.06
2022-10-23T23:41:04.823Z,99522.46
2022-10-23T23:44:08.509Z,99523.61
2022-10-23T23:47:10.366Z,99520.27
2022-10-23T23:50:12.553Z,99516.48
2022-10-23T23:53:14.464Z,99499.64
2022-10-23T23:56:16.709Z,99497.21
2022-10-23T23:59:18.433Z,99498.48
